createdAt,value
2018-02-13T00:00:24.971Z,100674.73
2018-02-13T00:02:52.524Z,100674.48
2018-02-13T00:05:20.084Z,100677.73
2018-02-13T00:07:47.703Z,100678.80
2018-02-13T00:10:15.244Z,100675.58
2018-02-13T00:12:42.763Z,100670.38
2018-02-13T00:15:10.307Z,100668.23
2018-02-13T00:17:37.857Z,100668.30
2018-02-13T00:20:05.448Z,100664.68
2018-02-13T00:22:44.810Z,100663.66
2018-02-13T00:25:12.364Z,100666.88
2018-02-13T00:27:39.922Z,100674.91
2018-02-13T00:30:07.467Z,100672.64
2018-02-13T00:32:35.013Z,100671.80
2018-02-13T00:35:02.564Z,100668.30
2018-02-13T00:37:30.121Z,100673.16
2018-02-13T00:39:57.801Z,100674.35
2018-02-13T00:42:25.380Z,100668.28
2018-02-13T00:44:52.934Z,100662.30
2018-02-13T00:47:20.477Z,100664.38
2018-02-13T00:49:47.995Z,100664.23
2018-02-13T00:52:15.655Z,100667.69
2018-02-13T00:54:43.180Z,100668.19
2018-02-13T00:57:11.266Z,100668.41
2018-02-13T00:59:38.888Z,100669.31
2018-02-13T01:02:06.414Z,100671.52
2018-02-13T01:04:34.053Z,100671.56
2018-02-13T01:07:01.579Z,100670.21
2018-02-13T01:09:29.148Z,100665.51
2018-02-13T01:11:56.751Z,100662.05
2018-02-13T01:14:24.330Z,100660.15
2018-02-13T01:16:51.852Z,100665.45
2018-02-13T01:19:19.380Z,100666.19
2018-02-13T01:21:47.286Z,100667.66
2018-02-13T01:24:14.842Z,100664.00
2018-02-13T01:26:42.398Z,100666.42
2018-02-13T01:29:10.263Z,100666.09
2018-02-13T01:31:37.803Z,100665.91
2018-02-13T01:34:05.375Z,100670.22
2018-02-13T01:36:32.950Z,100665.09
2018-02-13T01:39:00.509Z,100671.05
2018-02-13T01:41:28.052Z,100661.41
2018-02-13T01:43:55.608Z,100665.94
2018-02-13T01:46:23.164Z,100653.59
2018-02-13T01:48:50.776Z,100664.91
2018-02-13T01:51:18.297Z,100658.91
2018-02-13T01:53:45.829Z,100660.61
2018-02-13T01:56:13.386Z,100660.16
2018-02-13T01:58:40.900Z,100652.59
2018-02-13T02:01:08.502Z,100655.17
2018-02-13T02:03:36.043Z,100664.11
2018-02-13T02:06:03.564Z,100661.96
2018-02-13T02:08:31.128Z,100655.57
2018-02-13T02:10:58.684Z,100653.94
2018-02-13T02:13:26.231Z,100657.55
2018-02-13T02:15:53.813Z,100648.84
2018-02-13T02:18:21.349Z,100652.28
2018-02-13T02:20:48.968Z,100644.56
2018-02-13T02:23:16.504Z,100650.59
2018-02-13T02:25:44.153Z,100644.44
2018-02-13T02:28:11.741Z,100644.91
2018-02-13T02:30:39.311Z,100645.48
2018-02-13T02:33:06.842Z,100647.14
2018-02-13T02:35:34.400Z,100640.64
2018-02-13T02:38:02.011Z,100640.92
2018-02-13T02:40:29.574Z,100634.38
2018-02-13T02:43:06.188Z,100638.33
2018-02-13T02:45:33.755Z,100633.59
2018-02-13T02:48:01.277Z,100629.63
2018-02-13T02:50:28.848Z,100638.38
2018-02-13T02:52:56.397Z,100638.22
2018-02-13T02:55:23.993Z,100625.00
2018-02-13T02:57:51.645Z,100622.90
2018-02-13T03:00:19.208Z,100620.70
2018-02-13T03:02:46.726Z,100614.81
2018-02-13T03:05:14.280Z,100610.19
2018-02-13T03:07:41.816Z,100614.77
2018-02-13T03:10:09.411Z,100613.90
2018-02-13T03:12:36.927Z,100611.72
2018-02-13T03:15:04.465Z,100615.76
2018-02-13T03:17:32.457Z,100611.38
2018-02-13T03:20:00.063Z,100602.83
2018-02-13T03:22:27.601Z,100603.89
2018-02-13T03:24:55.153Z,100608.94
2018-02-13T03:27:22.694Z,100606.63
2018-02-13T03:29:50.257Z,100609.52
2018-02-13T03:32:17.776Z,100609.16
2018-02-13T03:34:45.344Z,100608.08
2018-02-13T03:37:12.951Z,100601.25
2018-02-13T03:39:40.464Z,100601.97
2018-02-13T03:42:08.031Z,100598.06
2018-02-13T03:44:35.556Z,100596.84
2018-02-13T03:47:03.541Z,100594.23
2018-02-13T03:49:31.059Z,100591.48
2018-02-13T03:51:58.611Z,100582.56
2018-02-13T03:54:26.177Z,100588.38
2018-02-13T03:56:53.696Z,100588.08
2018-02-13T03:59:21.264Z,100581.75
2018-02-13T04:01:48.926Z,100587.69
2018-02-13T04:04:16.479Z,100578.59
2018-02-13T04:06:44.058Z,100578.20
2018-02-13T04:09:11.598Z,100574.92
2018-02-13T04:11:39.190Z,100564.61
2018-02-13T04:14:06.719Z,100566.39
2018-02-13T04:16:34.237Z,100558.84
2018-02-13T04:19:03.738Z,100556.69
2018-02-13T04:21:31.255Z,100559.46
2018-02-13T04:23:58.775Z,100562.68
2018-02-13T04:26:26.373Z,100563.65
2018-02-13T04:28:53.896Z,100561.77
2018-02-13T04:31:21.477Z,100567.55
2018-02-13T04:33:49.048Z,100570.02
2018-02-13T04:36:16.588Z,100570.91
2018-02-13T04:38:44.135Z,100563.95
2018-02-13T04:41:11.679Z,100567.95
2018-02-13T04:43:39.651Z,100571.31
2018-02-13T04:46:07.230Z,100564.41
2018-02-13T04:48:34.751Z,100568.21
2018-02-13T04:51:02.322Z,100566.77
2018-02-13T04:53:30.229Z,100565.47
2018-02-13T04:55:57.748Z,100568.86
2018-02-13T04:58:25.300Z,100567.97
2018-02-13T05:00:52.890Z,100561.01
2018-02-13T05:03:20.434Z,100561.25
2018-02-13T05:05:48.025Z,100559.76
2018-02-13T05:08:15.574Z,100556.71
2018-02-13T05:10:43.169Z,100556.08
2018-02-13T05:13:10.734Z,100553.33
2018-02-13T05:15:38.721Z,100557.58
2018-02-13T05:18:06.264Z,100546.48
2018-02-13T05:20:34.595Z,100543.82
2018-02-13T05:23:02.147Z,100540.64
2018-02-13T05:25:29.751Z,100538.15
2018-02-13T05:27:57.316Z,100533.44
2018-02-13T05:30:24.861Z,100538.33
2018-02-13T05:32:52.442Z,100540.14
2018-02-13T05:35:20.009Z,100541.95
2018-02-13T05:37:47.980Z,100538.48
2018-02-13T05:40:15.563Z,100535.45
2018-02-13T05:42:43.275Z,100534.73
2018-02-13T05:45:10.809Z,100539.66
2018-02-13T05:47:38.388Z,100533.84
2018-02-13T05:50:05.926Z,100529.36
2018-02-13T05:52:33.470Z,100530.20
2018-02-13T05:55:01.040Z,100528.34
2018-02-13T05:57:28.567Z,100529.66
2018-02-13T05:59:56.129Z,100525.91
2018-02-13T06:02:23.675Z,100533.56
2018-02-13T06:04:51.229Z,100531.36
2018-02-13T06:07:18.770Z,100531.80
2018-02-13T06:09:46.313Z,100532.61
2018-02-13T06:12:13.875Z,100528.60
2018-02-13T06:14:41.471Z,100522.84
2018-02-13T06:17:08.996Z,100532.84
2018-02-13T06:19:36.607Z,100534.52
2018-02-13T06:22:04.176Z,100534.84
2018-02-13T06:24:31.725Z,100536.88
2018-02-13T06:26:59.273Z,100526.25
2018-02-13T06:29:27.020Z,100528.98
2018-02-13T06:31:54.543Z,100524.41
2018-02-13T06:34:22.086Z,100525.09
2018-02-13T06:36:50.055Z,100522.99
2018-02-13T06:39:17.582Z,100521.17
2018-02-13T06:41:45.121Z,100524.42
2018-02-13T06:44:12.704Z,100525.50
2018-02-13T06:46:40.227Z,100522.47
2018-02-13T06:49:07.771Z,100525.44
2018-02-13T06:51:35.344Z,100529.42
2018-02-13T06:54:02.902Z,100530.17
2018-02-13T06:56:30.467Z,100533.00
2018-02-13T06:58:57.996Z,100531.46
2018-02-13T07:01:25.635Z,100528.61
2018-02-13T07:03:53.191Z,100534.91
2018-02-13T07:06:20.756Z,100531.39
2018-02-13T07:08:48.308Z,100534.93
2018-02-13T07:11:15.884Z,100537.10
2018-02-13T07:13:43.457Z,100534.80
2018-02-13T07:16:10.975Z,100544.47
2018-02-13T07:18:38.586Z,100539.26
2018-02-13T07:21:06.145Z,100539.48
2018-02-13T07:23:33.697Z,100542.89
2018-02-13T07:26:01.286Z,100540.55
2018-02-13T07:28:28.829Z,100544.36
2018-02-13T07:30:56.409Z,100539.89
2018-02-13T07:33:23.947Z,100542.00
2018-02-13T07:35:51.528Z,100540.21
2018-02-13T07:38:19.087Z,100545.77
2018-02-13T07:40:46.649Z,100547.45
2018-02-13T07:43:14.204Z,100548.31
2018-02-13T07:45:41.813Z,100548.31
2018-02-13T07:48:09.385Z,100547.31
2018-02-13T07:50:36.941Z,100548.81
2018-02-13T07:53:04.920Z,100547.69
2018-02-13T07:55:32.434Z,100549.55
2018-02-13T07:57:59.954Z,100548.87
2018-02-13T08:00:27.557Z,100541.39
2018-02-13T08:02:55.087Z,100543.02
2018-02-13T08:05:22.645Z,100538.15
2018-02-13T08:07:50.164Z,100539.45
2018-02-13T08:10:17.727Z,100532.09
2018-02-13T08:12:45.642Z,100535.88
2018-02-13T08:15:13.183Z,100534.38
2018-02-13T08:17:40.703Z,100533.83
2018-02-13T08:20:08.267Z,100533.71
2018-02-13T08:22:35.836Z,100526.78
2018-02-13T08:25:03.408Z,100531.59
2018-02-13T08:27:30.956Z,100527.14
2018-02-13T08:29:58.487Z,100533.33
2018-02-13T08:32:26.376Z,100534.31
2018-02-13T08:34:53.907Z,100524.91
2018-02-13T08:37:21.443Z,100519.47
2018-02-13T08:39:49.028Z,100512.59
2018-02-13T08:42:16.582Z,100517.19
2018-02-13T08:44:44.175Z,100515.09
2018-02-13T08:47:11.699Z,100509.44
2018-02-13T08:49:39.233Z,100510.30
2018-02-13T08:52:06.831Z,100505.16
2018-02-13T08:54:34.347Z,100510.30
2018-02-13T08:57:01.960Z,100502.55
2018-02-13T08:59:29.488Z,100506.17
2018-02-13T09:01:57.054Z,100505.14
2018-02-13T09:04:24.619Z,100507.70
2018-02-13T09:06:52.178Z,100505.59
2018-02-13T09:09:19.746Z,100501.46
2018-02-13T09:11:47.256Z,100501.45
2018-02-13T09:14:14.831Z,100500.20
2018-02-13T09:16:43.176Z,100502.05
2018-02-13T09:19:10.724Z,100505.09
2018-02-13T09:21:38.277Z,100497.67
2018-02-13T09:24:05.815Z,100508.05
2018-02-13T09:26:33.703Z,100504.72
2018-02-13T09:29:02.140Z,100498.39
2018-02-13T09:31:29.666Z,100503.50
2018-02-13T09:33:58.151Z,100507.85
2018-02-13T09:36:25.689Z,100513.85
2018-02-13T09:38:53.452Z,100504.47
2018-02-13T09:41:20.987Z,100505.41
2018-02-13T09:43:48.525Z,100502.95
2018-02-13T09:46:16.119Z,100499.91
2018-02-13T09:48:43.674Z,100507.52
2018-02-13T09:51:11.219Z,100501.64
2018-02-13T09:53:38.822Z,100499.81
2018-02-13T09:56:06.347Z,100503.84
2018-02-13T09:58:33.880Z,100496.47
2018-02-13T10:01:01.480Z,100494.42
2018-02-13T10:03:29.102Z,100495.54
2018-02-13T10:05:56.611Z,100491.35
2018-02-13T10:08:24.626Z,100490.42
2018-02-13T10:10:52.176Z,100490.99
2018-02-13T10:13:19.731Z,100487.30
2018-02-13T10:15:47.354Z,100479.81
2018-02-13T10:18:14.882Z,100483.58
2018-02-13T10:20:42.425Z,100478.81
2018-02-13T10:23:10.067Z,100477.36
2018-02-13T10:25:37.641Z,100467.37
2018-02-13T10:28:05.192Z,100469.34
2018-02-13T10:30:32.733Z,100465.47
2018-02-13T10:33:00.335Z,100466.77
2018-02-13T10:35:28.429Z,100465.27
2018-02-13T10:37:55.967Z,100463.13
2018-02-13T10:40:23.527Z,100469.70
2018-02-13T10:42:51.060Z,100464.22
2018-02-13T10:45:18.600Z,100461.07
2018-02-13T10:47:46.159Z,100465.91
2018-02-13T10:50:13.757Z,100466.50
2018-02-13T10:52:41.310Z,100464.34
2018-02-13T10:55:08.861Z,100455.77
2018-02-13T10:57:36.423Z,100458.00
2018-02-13T11:00:03.993Z,100452.55
2018-02-13T11:02:31.529Z,100452.97
2018-02-13T11:04:59.084Z,100448.37
2018-02-13T11:07:26.611Z,100443.20
2018-02-13T11:09:54.148Z,100449.73
2018-02-13T11:12:21.664Z,100451.91
2018-02-13T11:14:49.242Z,100446.77
2018-02-13T11:17:16.827Z,100445.41
2018-02-13T11:19:44.372Z,100441.01
2018-02-13T11:22:11.962Z,100436.33
2018-02-13T11:24:39.481Z,100435.53
2018-02-13T11:27:07.002Z,100440.91
2018-02-13T11:29:34.586Z,100436.98
2018-02-13T11:32:02.131Z,100428.67
2018-02-13T11:34:29.695Z,100433.00
2018-02-13T11:36:57.264Z,100426.45
2018-02-13T11:39:24.796Z,100430.16
2018-02-13T11:41:52.325Z,100431.42
2018-02-13T11:44:19.878Z,100431.26
2018-02-13T11:46:47.460Z,100423.77
2018-02-13T11:49:15.043Z,100419.09
2018-02-13T11:51:42.589Z,100420.69
2018-02-13T11:54:11.767Z,100423.84
2018-02-13T11:56:39.327Z,100420.98
2018-02-13T11:59:06.848Z,100423.80
2018-02-13T12:01:34.411Z,100425.16
2018-02-13T12:04:01.940Z,100419.94
2018-02-13T12:06:29.505Z,100419.02
2018-02-13T12:08:57.020Z,100418.33
2018-02-13T12:11:24.551Z,100416.89
2018-02-13T12:13:52.876Z,100414.36
2018-02-13T12:16:20.384Z,100415.91
2018-02-13T12:18:47.900Z,100412.97
2018-02-13T12:21:15.960Z,100408.03
2018-02-13T12:23:43.475Z,100411.94
2018-02-13T12:26:11.983Z,100405.41
2018-02-13T12:28:39.554Z,100405.86
2018-02-13T12:31:07.060Z,100400.44
2018-02-13T12:33:34.629Z,100401.92
2018-02-13T12:36:02.220Z,100395.84
2018-02-13T12:38:29.732Z,100395.06
2018-02-13T12:40:57.282Z,100390.02
2018-02-13T12:43:24.868Z,100391.48
2018-02-13T12:45:52.385Z,100391.92
2018-02-13T12:48:19.920Z,100393.30
2018-02-13T12:50:47.866Z,100387.20
2018-02-13T12:53:16.320Z,100394.75
2018-02-13T12:55:43.846Z,100375.47
2018-02-13T12:58:11.415Z,100386.60
2018-02-13T13:00:39.921Z,100386.29
2018-02-13T13:03:07.441Z,100376.73
2018-02-13T13:05:34.981Z,100380.76
2018-02-13T13:08:02.564Z,100377.73
2018-02-13T13:10:30.118Z,100378.02
2018-02-13T13:12:57.631Z,100381.77
2018-02-13T13:15:25.200Z,100366.76
2018-02-13T13:17:52.734Z,100367.03
2018-02-13T13:20:20.266Z,100365.58
2018-02-13T13:22:47.861Z,100366.80
2018-02-13T13:25:16.463Z,100367.95
2018-02-13T13:27:44.010Z,100357.05
2018-02-13T13:30:11.694Z,100359.31
2018-02-13T13:32:39.221Z,100349.16
2018-02-13T13:35:06.771Z,100349.45
2018-02-13T13:37:34.376Z,100342.84
2018-02-13T13:40:01.938Z,100343.72
2018-02-13T13:42:29.586Z,100344.24
2018-02-13T13:44:57.159Z,100344.02
2018-02-13T13:47:25.678Z,100334.55
2018-02-13T13:49:53.216Z,100337.31
2018-02-13T13:52:20.756Z,100345.08
2018-02-13T13:54:48.321Z,100338.00
2018-02-13T13:57:15.844Z,100331.92
2018-02-13T13:59:43.418Z,100331.67
2018-02-13T14:02:10.943Z,100331.16
2018-02-13T14:04:38.451Z,100321.95
2018-02-13T14:07:06.067Z,100332.98
2018-02-13T14:09:33.594Z,100325.48
2018-02-13T14:12:01.165Z,100320.75
2018-02-13T14:14:28.752Z,100327.05
2018-02-13T14:16:58.182Z,100330.99
2018-02-13T14:19:26.202Z,100324.53
2018-02-13T14:21:53.724Z,100324.32
2018-02-13T14:24:21.259Z,100320.28
2018-02-13T14:26:48.896Z,100333.69
2018-02-13T14:29:16.424Z,100323.44
2018-02-13T14:31:43.980Z,100322.39
2018-02-13T14:34:11.941Z,100319.27
2018-02-13T14:36:39.514Z,100317.64
2018-02-13T14:39:07.040Z,100326.84
2018-02-13T14:41:34.598Z,100318.25
2018-02-13T14:44:02.124Z,100311.84
2018-02-13T14:46:29.683Z,100321.30
2018-02-13T14:48:57.215Z,100321.42
2018-02-13T14:51:24.815Z,100319.06
2018-02-13T14:53:52.361Z,100322.78
2018-02-13T14:56:19.912Z,100320.53
2018-02-13T14:58:48.499Z,100319.73
2018-02-13T15:01:17.772Z,100317.48
2018-02-13T15:03:45.344Z,100317.09
2018-02-13T15:06:12.891Z,100323.48
2018-02-13T15:08:40.409Z,100322.83
2018-02-13T15:11:08.372Z,100318.87
2018-02-13T15:13:35.901Z,100320.98
2018-02-13T15:16:03.440Z,100319.39
2018-02-13T15:18:31.017Z,100321.38
2018-02-13T15:20:58.551Z,100329.76
2018-02-13T15:23:26.130Z,100322.89
2018-02-13T15:25:53.663Z,100322.23
2018-02-13T15:28:21.190Z,100329.56
2018-02-13T15:30:48.777Z,100325.73
2018-02-13T15:33:16.319Z,100333.30
2018-02-13T15:35:43.850Z,100328.05
2018-02-13T15:38:11.779Z,100331.63
2018-02-13T15:40:39.328Z,100328.52
2018-02-13T15:43:06.861Z,100328.11
2018-02-13T15:45:34.442Z,100333.69
2018-02-13T15:48:01.983Z,100335.98
2018-02-13T15:50:29.537Z,100338.58
2018-02-13T15:52:57.654Z,100334.67
2018-02-13T15:55:25.291Z,100339.19
2018-02-13T15:57:52.803Z,100338.47
2018-02-13T16:00:20.363Z,100330.66
2018-02-13T16:02:47.894Z,100333.16
2018-02-13T16:05:15.483Z,100342.57
2018-02-13T16:07:43.009Z,100329.67
2018-02-13T16:10:10.533Z,100340.17
2018-02-13T16:12:38.076Z,100340.70
2018-02-13T16:15:05.634Z,100344.72
2018-02-13T16:17:33.186Z,100342.02
2018-02-13T16:20:00.744Z,100339.03
2018-02-13T16:22:28.267Z,100344.84
2018-02-13T16:24:56.299Z,100342.37
2018-02-13T16:27:23.830Z,100341.66
2018-02-13T16:29:51.414Z,100339.20
2018-02-13T16:32:18.988Z,100346.70
2018-02-13T16:34:46.509Z,100339.84
2018-02-13T16:37:14.032Z,100339.11
2018-02-13T16:39:41.564Z,100347.53
2018-02-13T16:42:09.113Z,100347.67
2018-02-13T16:44:36.645Z,100344.87
2018-02-13T16:47:04.217Z,100347.83
2018-02-13T16:49:31.772Z,100346.70
2018-02-13T16:51:59.314Z,100355.00
2018-02-13T16:54:26.914Z,100350.75
2018-02-13T16:56:54.498Z,100348.33
2018-02-13T16:59:22.037Z,100357.06
2018-02-13T17:01:49.599Z,100354.99
2018-02-13T17:04:17.215Z,100360.41
2018-02-13T17:06:44.752Z,100362.64
2018-02-13T17:09:12.323Z,100366.64
2018-02-13T17:11:39.880Z,100366.20
2018-02-13T17:14:07.412Z,100371.46
2018-02-13T17:16:34.928Z,100372.50
2018-02-13T17:19:02.537Z,100376.52
2018-02-13T17:21:30.051Z,100375.21
2018-02-13T17:23:57.630Z,100381.06
2018-02-13T17:26:25.158Z,100384.12
2018-02-13T17:28:52.743Z,100385.89
2018-02-13T17:31:20.330Z,100383.08
2018-02-13T17:33:47.996Z,100378.87
2018-02-13T17:36:15.660Z,100381.12
2018-02-13T17:38:43.179Z,100381.84
2018-02-13T17:41:10.750Z,100383.70
2018-02-13T17:43:39.153Z,100387.08
2018-02-13T17:46:06.680Z,100389.56
2018-02-13T17:48:34.386Z,100387.59
2018-02-13T17:51:02.392Z,100388.53
2018-02-13T17:53:29.911Z,100395.09
2018-02-13T17:55:57.449Z,100388.32
2018-02-13T17:58:25.011Z,100394.97
2018-02-13T18:00:52.532Z,100401.02
2018-02-13T18:03:20.070Z,100402.38
2018-02-13T18:05:47.583Z,100397.55
2018-02-13T18:08:15.173Z,100399.19
2018-02-13T18:10:42.718Z,100397.48
2018-02-13T18:13:10.270Z,100401.42
2018-02-13T18:15:37.836Z,100403.32
2018-02-13T18:18:05.401Z,100402.70
2018-02-13T18:20:32.953Z,100408.80
2018-02-13T18:23:00.464Z,100411.89
2018-02-13T18:25:28.028Z,100412.19
2018-02-13T18:27:55.640Z,100414.62
2018-02-13T18:30:23.176Z,100410.95
2018-02-13T18:32:50.706Z,100418.59
2018-02-13T18:35:18.292Z,100421.86
2018-02-13T18:37:45.841Z,100426.02
2018-02-13T18:40:13.384Z,100427.00
2018-02-13T18:42:40.947Z,100436.81
2018-02-13T18:45:08.464Z,100430.46
2018-02-13T18:47:36.040Z,100425.97
2018-02-13T18:50:03.552Z,100431.19
2018-02-13T18:54:58.619Z,100441.13
2018-02-13T18:57:26.157Z,100443.08
2018-02-13T18:59:54.927Z,100441.77
2018-02-13T19:02:22.690Z,100445.88
2018-02-13T19:04:50.583Z,100450.02
2018-02-13T19:07:18.323Z,100449.67
2018-02-13T19:09:46.021Z,100456.19
2018-02-13T19:12:13.798Z,100460.68
2018-02-13T19:14:41.388Z,100456.84
2018-02-13T19:19:36.456Z,100456.08
2018-02-13T19:22:04.416Z,100467.98
2018-02-13T19:24:32.001Z,100468.77
2018-02-13T19:26:59.611Z,100466.67
2018-02-13T19:29:27.200Z,100462.52
2018-02-13T19:31:54.998Z,100464.85
2018-02-13T19:34:23.014Z,100460.50
2018-02-13T19:36:50.756Z,100463.79
2018-02-13T19:39:18.338Z,100469.59
2018-02-13T19:41:46.090Z,100470.23
2018-02-13T19:44:13.761Z,100475.41
2018-02-13T19:46:41.352Z,100469.95
2018-02-13T19:49:10.259Z,100475.56
2018-02-13T19:51:38.108Z,100485.29
2018-02-13T19:54:05.697Z,100482.86
2018-02-13T19:56:33.238Z,100482.62
2018-02-13T19:59:00.802Z,100479.66
2018-02-13T20:01:28.422Z,100481.15
2018-02-13T20:03:56.620Z,100477.55
2018-02-13T20:06:24.396Z,100483.77
2018-02-13T20:08:51.989Z,100484.29
2018-02-13T20:11:19.647Z,100489.13
2018-02-13T20:13:47.422Z,100482.84
2018-02-13T20:16:15.098Z,100489.53
2018-02-13T20:18:42.687Z,100489.48
2018-02-13T20:21:10.401Z,100491.36
2018-02-13T20:23:38.466Z,100488.98
2018-02-13T20:26:06.025Z,100496.72
2018-02-13T20:28:33.600Z,100495.89
2018-02-13T20:31:01.458Z,100498.26
2018-02-13T20:33:29.237Z,100497.58
2018-02-13T20:35:56.913Z,100499.80
2018-02-13T20:38:24.447Z,100493.88
2018-02-13T20:40:52.265Z,100493.59
2018-02-13T20:43:20.732Z,100495.67
2018-02-13T20:45:48.286Z,100497.33
2018-02-13T20:48:15.887Z,100499.14
2018-02-13T20:50:43.466Z,100500.12
2018-02-13T20:53:11.020Z,100499.66
2018-02-13T20:55:38.949Z,100504.66
2018-02-13T20:58:06.487Z,100509.35
2018-02-13T21:00:34.038Z,100511.26
2018-02-13T21:03:02.109Z,100511.27
2018-02-13T21:05:29.655Z,100514.39
2018-02-13T21:07:57.217Z,100516.92
2018-02-13T21:10:24.767Z,100513.23
2018-02-13T21:12:52.324Z,100517.77
2018-02-13T21:15:19.862Z,100519.34
2018-02-13T21:17:47.399Z,100526.76
2018-02-13T21:20:14.951Z,100524.22
2018-02-13T21:22:42.498Z,100526.92
2018-02-13T21:25:10.059Z,100517.72
2018-02-13T21:27:37.620Z,100527.01
2018-02-13T21:30:05.195Z,100525.68
2018-02-13T21:32:32.819Z,100535.08
2018-02-13T21:35:00.357Z,100527.12
2018-02-13T21:37:27.880Z,100528.23
2018-02-13T21:39:55.439Z,100525.61
2018-02-13T21:42:23.311Z,100531.77
2018-02-13T21:44:50.863Z,100526.88
2018-02-13T21:47:18.431Z,100530.25
2018-02-13T21:49:46.001Z,100531.24
2018-02-13T21:52:13.538Z,100530.25
2018-02-13T21:54:41.078Z,100531.20
2018-02-13T21:57:08.621Z,100532.64
2018-02-13T21:59:36.977Z,100534.47
2018-02-13T22:02:04.502Z,100531.95
2018-02-13T22:04:32.024Z,100531.56
2018-02-13T22:06:59.582Z,100529.22
2018-02-13T22:09:27.120Z,100532.28
2018-02-13T22:11:54.639Z,100534.17
2018-02-13T22:14:23.156Z,100533.34
2018-02-13T22:16:50.675Z,100526.17
2018-02-13T22:19:18.223Z,100526.66
2018-02-13T22:21:45.845Z,100539.27
2018-02-13T22:24:13.350Z,100541.66
2018-02-13T22:26:40.868Z,100539.45
2018-02-13T22:29:08.431Z,100541.19
2018-02-13T22:31:35.942Z,100536.08
2018-02-13T22:34:03.545Z,100533.56
2018-02-13T22:36:31.105Z,100535.72
2018-02-13T22:38:58.670Z,100539.67
2018-02-13T22:41:26.255Z,100542.95
2018-02-13T22:43:53.887Z,100542.37
2018-02-13T22:46:21.461Z,100544.60
2018-02-13T22:48:49.027Z,100541.25
2018-02-13T22:51:16.599Z,100546.81
2018-02-13T22:53:44.128Z,100553.89
2018-02-13T22:56:14.203Z,100548.61
2018-02-13T22:58:41.818Z,100547.46
2018-02-13T23:01:09.523Z,100550.86
2018-02-13T23:03:37.160Z,100547.55
2018-02-13T23:06:04.772Z,100553.17
2018-02-13T23:08:32.338Z,100557.58
2018-02-13T23:10:59.901Z,100557.31
2018-02-13T23:13:27.475Z,100563.23
2018-02-13T23:15:55.055Z,100570.98
2018-02-13T23:18:22.567Z,100577.62
2018-02-13T23:20:50.109Z,100572.72
2018-02-13T23:23:17.669Z,100578.77
2018-02-13T23:25:45.239Z,100573.34
2018-02-13T23:28:12.758Z,100568.08
2018-02-13T23:30:40.327Z,100570.30
2018-02-13T23:33:07.861Z,100572.72
2018-02-13T23:35:35.398Z,100581.30
2018-02-13T23:38:02.956Z,100574.53
2018-02-13T23:40:30.489Z,100571.94
2018-02-13T23:42:58.045Z,100575.20
2018-02-13T23:45:25.600Z,100583.33
2018-02-13T23:47:53.174Z,100579.34
2018-02-13T23:50:20.846Z,100580.86
2018-02-13T23:52:48.410Z,100584.12
2018-02-13T23:55:15.954Z,100586.25
2018-02-13T23:57:43.500Z,100585.97
